createdAt,value
2018-10-21T00:00:49.304Z,43.33
2018-10-21T00:03:18.262Z,49.30
2018-10-21T00:05:46.800Z,42.23
2018-10-21T00:08:15.345Z,36.23
2018-10-21T00:10:43.944Z,44.80
2018-10-21T00:13:12.502Z,38.40
2018-10-21T00:15:41.172Z,52.27
2018-10-21T00:18:09.652Z,52.90
2018-10-21T00:20:38.197Z,48.83
2018-10-21T00:23:06.907Z,50.77
2018-10-21T00:25:35.492Z,60.40
2018-10-21T00:28:04.084Z,50.17
2018-10-21T00:30:32.644Z,50.27
2018-10-21T00:33:01.187Z,44.43
2018-10-21T00:35:29.754Z,53.20
2018-10-21T00:37:58.347Z,42.30
2018-10-21T00:40:26.890Z,43.57
2018-10-21T00:42:55.443Z,41.30
2018-10-21T00:45:24.020Z,41.83
2018-10-21T00:47:52.544Z,36.27
2018-10-21T00:50:21.105Z,42.13
2018-10-21T00:52:49.671Z,35.53
2018-10-21T00:55:18.228Z,39.00
2018-10-21T00:57:46.814Z,39.60
2018-10-21T01:00:15.416Z,46.53
2018-10-21T01:02:43.978Z,40.33
2018-10-21T01:05:12.541Z,33.37
2018-10-21T01:07:41.041Z,47.00
2018-10-21T01:10:11.255Z,43.03
2018-10-21T01:12:40.146Z,39.87
2018-10-21T01:15:10.338Z,38.70
2018-10-21T01:17:38.892Z,37.47
2018-10-21T01:20:09.274Z,32.43
2018-10-21T01:22:37.922Z,36.83
2018-10-21T01:25:07.081Z,36.63
2018-10-21T01:27:35.643Z,35.47
2018-10-21T01:30:04.811Z,32.90
2018-10-21T01:32:33.374Z,35.07
2018-10-21T01:35:01.915Z,32.27
2018-10-21T01:37:30.528Z,30.30
2018-10-21T01:40:33.970Z,36.53
2018-10-21T01:43:03.120Z,40.50
2018-10-21T01:45:31.666Z,37.90
2018-10-21T01:48:02.048Z,40.23
2018-10-21T01:50:30.596Z,46.70
2018-10-21T01:53:00.431Z,40.60
2018-10-21T01:55:29.032Z,52.07
2018-10-21T01:57:58.208Z,41.00
2018-10-21T02:00:27.438Z,51.00
2018-10-21T02:02:56.519Z,49.87
2018-10-21T02:05:25.368Z,41.03
2018-10-21T02:07:54.187Z,50.20
2018-10-21T02:10:22.747Z,44.57
2018-10-21T02:12:51.295Z,44.37
2018-10-21T02:15:19.875Z,43.40
2018-10-21T02:17:48.412Z,46.60
2018-10-21T02:20:17.554Z,49.00
2018-10-21T02:22:46.813Z,43.53
2018-10-21T02:25:15.465Z,48.77
2018-10-21T02:27:44.891Z,55.37
2018-10-21T02:30:15.419Z,49.33
2018-10-21T02:32:44.717Z,55.83
2018-10-21T02:35:13.851Z,53.57
2018-10-21T02:37:42.801Z,56.03
2018-10-21T02:41:22.888Z,48.07
2018-10-21T02:43:51.716Z,47.33
2018-10-21T02:46:21.180Z,51.77
2018-10-21T02:48:50.259Z,50.70
2018-10-21T02:51:18.938Z,48.40
2018-10-21T02:53:47.467Z,54.30
2018-10-21T02:56:16.040Z,46.20
2018-10-21T02:58:44.590Z,48.70
2018-10-21T03:01:13.151Z,56.20
2018-10-21T03:03:41.689Z,50.57
2018-10-21T03:06:10.243Z,51.80
2018-10-21T03:08:39.327Z,49.20
2018-10-21T03:11:08.011Z,56.13
2018-10-21T03:13:36.559Z,49.37
2018-10-21T03:16:05.356Z,47.27
2018-10-21T03:18:33.994Z,39.90
2018-10-21T03:21:03.555Z,30.57
2018-10-21T03:23:32.392Z,41.87
2018-10-21T03:26:01.202Z,36.73
2018-10-21T03:28:29.935Z,33.70
2018-10-21T03:30:58.503Z,36.60
2018-10-21T03:33:27.330Z,40.50
2018-10-21T03:35:55.621Z,32.73
2018-10-21T03:38:24.195Z,39.40
2018-10-21T03:40:52.787Z,45.67
2018-10-21T03:43:21.315Z,41.87
2018-10-21T03:45:49.891Z,38.20
2018-10-21T03:48:18.427Z,42.40
2018-10-21T03:50:46.968Z,47.40
2018-10-21T03:53:15.536Z,39.07
2018-10-21T03:55:44.502Z,53.77
2018-10-21T03:58:13.148Z,37.00
2018-10-21T04:00:41.714Z,37.93
2018-10-21T04:03:10.276Z,36.73
2018-10-21T04:05:38.869Z,37.40
2018-10-21T04:08:07.438Z,35.03
2018-10-21T04:10:36.044Z,31.13
2018-10-21T04:13:04.884Z,32.53
2018-10-21T04:15:33.513Z,47.53
2018-10-21T04:18:02.120Z,34.40
2018-10-21T04:20:30.674Z,34.43
2018-10-21T04:23:00.580Z,38.10
2018-10-21T04:25:30.288Z,38.53
2018-10-21T04:27:59.721Z,38.83
2018-10-21T04:30:30.338Z,39.60
2018-10-21T04:33:02.888Z,38.13
2018-10-21T04:35:31.754Z,40.57
2018-10-21T04:40:20.451Z,48.80
2018-10-21T04:42:49.539Z,45.77
2018-10-21T04:45:22.384Z,63.00
2018-10-21T04:47:50.927Z,77.83
2018-10-21T04:50:19.481Z,74.80
2018-10-21T04:52:48.023Z,79.03
2018-10-21T04:55:17.166Z,78.27
2018-10-21T04:57:46.902Z,76.70
2018-10-21T05:00:17.847Z,76.60
2018-10-21T05:02:46.389Z,78.13
2018-10-21T05:05:15.591Z,63.10
2018-10-21T05:07:44.219Z,69.93
2018-10-21T05:10:29.139Z,77.40
2018-10-21T05:12:57.964Z,73.50
2018-10-21T05:15:27.534Z,65.57
2018-10-21T05:17:56.179Z,88.13
2018-10-21T05:20:24.771Z,65.20
2018-10-21T05:22:53.385Z,91.83
2018-10-21T05:25:21.962Z,76.37
2018-10-21T05:27:50.506Z,91.47
2018-10-21T05:30:19.022Z,59.53
2018-10-21T05:32:47.579Z,139.50
2018-10-21T05:35:17.073Z,91.00
2018-10-21T05:37:45.605Z,59.87
2018-10-21T05:40:15.988Z,141.63
2018-10-21T05:42:44.929Z,116.53
2018-10-21T05:45:13.550Z,89.57
2018-10-21T05:47:42.406Z,89.03
2018-10-21T05:50:12.081Z,92.80
2018-10-21T05:52:40.990Z,99.93
2018-10-21T05:55:10.320Z,81.63
2018-10-21T05:57:38.969Z,82.43
2018-10-21T06:00:10.881Z,85.23
2018-10-21T06:02:39.395Z,82.87
2018-10-21T06:05:19.020Z,89.00
2018-10-21T06:07:47.585Z,70.63
2018-10-21T06:10:16.172Z,82.07
2018-10-21T06:12:44.803Z,55.47
2018-10-21T06:15:13.328Z,48.57
2018-10-21T06:17:41.858Z,41.77
2018-10-21T06:21:18.116Z,40.53
2018-10-21T06:23:46.811Z,51.10
2018-10-21T06:26:15.369Z,47.73
2018-10-21T06:28:43.904Z,46.90
2018-10-21T06:31:12.513Z,49.43
2018-10-21T06:33:41.149Z,51.27
2018-10-21T06:36:09.727Z,57.90
2018-10-21T06:38:38.259Z,54.07
2018-10-21T06:41:06.912Z,59.33
2018-10-21T06:43:35.495Z,49.70
2018-10-21T06:46:04.135Z,43.57
2018-10-21T06:48:32.759Z,31.90
2018-10-21T06:51:01.310Z,25.97
2018-10-21T06:53:29.842Z,23.20
2018-10-21T06:55:58.352Z,20.03
2018-10-21T06:58:26.883Z,21.53
2018-10-21T07:00:55.480Z,17.90
2018-10-21T07:03:24.036Z,17.27
2018-10-21T07:06:10.947Z,23.00
2018-10-21T07:08:39.484Z,15.70
2018-10-21T07:11:08.098Z,18.33
2018-10-21T07:13:36.895Z,24.47
2018-10-21T07:16:06.227Z,24.77
2018-10-21T07:18:34.791Z,18.83
2018-10-21T07:21:03.563Z,16.70
2018-10-21T07:23:32.169Z,15.63
2018-10-21T07:26:00.830Z,17.40
2018-10-21T07:28:29.767Z,19.60
2018-10-21T07:30:58.532Z,14.83
2018-10-21T07:33:27.147Z,17.43
2018-10-21T07:35:55.704Z,13.10
2018-10-21T07:38:24.302Z,13.53
2018-10-21T07:40:52.877Z,11.60
2018-10-21T07:43:21.443Z,12.10
2018-10-21T07:45:49.996Z,18.93
2018-10-21T07:48:18.540Z,13.50
2018-10-21T07:50:47.146Z,15.90
2018-10-21T07:53:15.814Z,15.23
2018-10-21T07:55:44.837Z,15.13
2018-10-21T07:58:13.610Z,14.70
2018-10-21T08:00:42.146Z,14.40
2018-10-21T08:03:10.768Z,14.53
2018-10-21T08:05:50.389Z,12.30
2018-10-21T08:08:23.074Z,15.70
2018-10-21T08:10:51.694Z,10.30
2018-10-21T08:13:21.700Z,13.20
2018-10-21T08:15:50.399Z,12.30
2018-10-21T08:18:18.964Z,13.57
2018-10-21T08:20:48.695Z,12.73
2018-10-21T08:23:18.246Z,14.90
2018-10-21T08:25:48.404Z,17.90
2018-10-21T08:28:17.042Z,17.37
2018-10-21T08:30:45.559Z,19.93
2018-10-21T08:33:14.119Z,17.53
2018-10-21T08:35:42.690Z,19.63
2018-10-21T08:38:11.248Z,17.40
2018-10-21T08:40:39.833Z,17.47
2018-10-21T08:43:08.420Z,15.83
2018-10-21T08:45:37.001Z,20.07
2018-10-21T08:48:05.692Z,16.73
2018-10-21T08:50:34.256Z,19.27
2018-10-21T08:53:02.882Z,20.00
2018-10-21T08:55:31.463Z,23.77
2018-10-21T08:58:00.148Z,19.70
2018-10-21T09:00:28.771Z,20.10
2018-10-21T09:02:57.385Z,18.87
2018-10-21T09:05:26.126Z,20.57
2018-10-21T09:07:54.686Z,18.10
2018-10-21T09:10:23.460Z,18.23
2018-10-21T09:12:51.764Z,18.37
2018-10-21T09:15:20.383Z,19.47
2018-10-21T09:17:48.931Z,17.07
2018-10-21T09:20:18.680Z,18.27
2018-10-21T09:22:47.246Z,17.40
2018-10-21T09:25:15.988Z,17.17
2018-10-21T09:27:45.206Z,19.43
2018-10-21T09:30:15.697Z,17.23
2018-10-21T09:32:44.329Z,17.97
2018-10-21T09:35:14.478Z,16.27
2018-10-21T09:37:43.529Z,19.53
2018-10-21T09:40:14.711Z,19.27
2018-10-21T09:42:43.712Z,16.93
2018-10-21T09:45:15.697Z,19.60
2018-10-21T09:47:44.804Z,17.17
2018-10-21T09:50:13.870Z,16.50
2018-10-21T09:52:42.519Z,16.50
2018-10-21T09:55:16.454Z,19.60
2018-10-21T09:57:45.859Z,12.77
2018-10-21T10:00:19.831Z,15.27
2018-10-21T10:02:53.745Z,14.90
2018-10-21T10:05:22.357Z,13.67
2018-10-21T10:07:50.858Z,16.50
2018-10-21T10:10:19.424Z,19.60
2018-10-21T10:12:47.996Z,18.47
2018-10-21T10:15:16.666Z,13.23
2018-10-21T10:17:45.257Z,12.07
2018-10-21T10:20:13.790Z,16.67
2018-10-21T10:22:42.356Z,13.40
2018-10-21T10:25:11.711Z,13.83
2018-10-21T10:27:40.762Z,16.03
2018-10-21T10:30:10.951Z,16.67
2018-10-21T10:32:40.711Z,15.10
2018-10-21T10:35:10.068Z,15.97
2018-10-21T10:37:38.657Z,13.73
2018-10-21T10:40:08.731Z,14.50
2018-10-21T10:42:37.275Z,16.30
2018-10-21T10:45:06.473Z,14.90
2018-10-21T10:47:35.123Z,11.63
2018-10-21T10:50:04.318Z,13.07
2018-10-21T10:52:32.885Z,17.80
2018-10-21T10:55:01.592Z,13.97
2018-10-21T10:57:30.107Z,16.53
2018-10-21T10:59:58.885Z,22.93
2018-10-21T11:02:27.254Z,21.33
2018-10-21T11:04:57.001Z,17.50
2018-10-21T11:07:25.627Z,16.27
2018-10-21T11:09:54.233Z,17.63
2018-10-21T11:12:22.847Z,16.40
2018-10-21T11:14:51.432Z,13.80
2018-10-21T11:17:20.068Z,20.93
2018-10-21T11:19:48.649Z,17.20
2018-10-21T11:22:17.288Z,17.47
2018-10-21T11:24:47.824Z,14.47
2018-10-21T11:27:17.229Z,23.47
2018-10-21T11:29:46.701Z,16.90
2018-10-21T11:32:15.291Z,15.47
2018-10-21T11:34:43.882Z,17.00
2018-10-21T11:37:12.581Z,17.87
2018-10-21T11:39:40.982Z,17.73
2018-10-21T11:42:09.513Z,16.83
2018-10-21T11:44:38.110Z,15.50
2018-10-21T11:47:06.667Z,15.13
2018-10-21T11:49:35.219Z,21.33
2018-10-21T11:52:03.798Z,13.63
2018-10-21T11:54:32.330Z,15.57
2018-10-21T11:57:00.876Z,12.07
2018-10-21T11:59:29.464Z,11.87
2018-10-21T12:01:58.037Z,11.63
2018-10-21T12:04:26.606Z,13.73
2018-10-21T12:06:55.194Z,9.63
2018-10-21T12:09:23.704Z,13.07
2018-10-21T12:11:52.219Z,10.73
2018-10-21T12:14:20.747Z,8.70
2018-10-21T12:16:49.378Z,12.13
2018-10-21T12:19:18.000Z,10.03
2018-10-21T12:21:46.483Z,9.37
2018-10-21T12:24:15.069Z,7.57
2018-10-21T12:26:43.620Z,9.77
2018-10-21T12:29:12.206Z,6.60
2018-10-21T12:31:40.738Z,7.77
2018-10-21T12:34:09.303Z,11.27
2018-10-21T12:36:37.876Z,8.20
2018-10-21T12:39:08.624Z,7.60
2018-10-21T12:41:37.155Z,8.87
2018-10-21T12:44:05.731Z,13.97
2018-10-21T12:46:34.277Z,4.90
2018-10-21T12:49:02.837Z,8.73
2018-10-21T12:51:31.399Z,6.80
2018-10-21T12:54:00.020Z,11.23
2018-10-21T12:56:28.503Z,2.90
2018-10-21T12:58:57.031Z,9.70
2018-10-21T13:01:25.575Z,5.27
2018-10-21T13:03:54.170Z,7.43
2018-10-21T13:06:22.704Z,6.00
2018-10-21T13:08:51.238Z,7.90
2018-10-21T13:11:19.828Z,3.60
2018-10-21T13:13:48.362Z,4.17
2018-10-21T13:16:16.948Z,3.87
2018-10-21T13:18:45.411Z,7.90
2018-10-21T13:21:13.953Z,5.03
2018-10-21T13:23:42.460Z,4.90
2018-10-21T13:26:11.047Z,3.97
2018-10-21T13:28:39.627Z,6.53
2018-10-21T13:31:08.184Z,5.87
2018-10-21T13:33:36.715Z,3.80
2018-10-21T13:36:05.466Z,4.77
2018-10-21T13:38:33.971Z,3.27
2018-10-21T13:41:02.467Z,5.20
2018-10-21T13:43:30.971Z,4.83
2018-10-21T13:45:59.946Z,4.10
2018-10-21T13:48:28.500Z,3.23
2018-10-21T13:50:57.098Z,3.17
2018-10-21T13:53:25.747Z,2.60
2018-10-21T13:55:54.238Z,5.33
2018-10-21T13:58:22.791Z,4.57
2018-10-21T14:00:51.377Z,3.23
2018-10-21T14:03:19.995Z,4.17
2018-10-21T14:05:48.551Z,2.30
2018-10-21T14:08:17.117Z,5.50
2018-10-21T14:10:45.647Z,3.40
2018-10-21T14:13:14.235Z,3.57
2018-10-21T14:15:42.747Z,5.40
2018-10-21T14:18:11.287Z,2.30
2018-10-21T14:20:39.845Z,2.10
2018-10-21T14:23:08.391Z,2.60
2018-10-21T14:25:36.958Z,4.00
2018-10-21T14:28:05.784Z,5.00
2018-10-21T14:30:34.428Z,5.40
2018-10-21T14:33:02.924Z,5.80
2018-10-21T14:35:31.436Z,5.20
2018-10-21T14:38:00.067Z,2.17
2018-10-21T14:40:28.549Z,2.60
2018-10-21T14:42:57.092Z,2.43
2018-10-21T14:45:25.640Z,3.87
2018-10-21T14:47:54.141Z,5.20
2018-10-21T14:50:22.684Z,3.27
2018-10-21T14:52:51.224Z,3.27
2018-10-21T14:55:19.747Z,2.67
2018-10-21T14:57:48.291Z,2.80
2018-10-21T15:00:16.915Z,2.37
2018-10-21T15:02:45.405Z,5.43
2018-10-21T15:05:14.302Z,3.23
2018-10-21T15:07:44.948Z,6.53
2018-10-21T15:10:13.559Z,4.53
2018-10-21T15:12:42.183Z,4.43
2018-10-21T15:15:11.226Z,4.90
2018-10-21T15:17:40.111Z,2.70
2018-10-21T15:20:10.724Z,8.10
2018-10-21T15:22:39.270Z,7.47
2018-10-21T15:25:09.409Z,3.77
2018-10-21T15:27:38.018Z,2.97
2018-10-21T15:30:07.898Z,2.20
2018-10-21T15:32:36.511Z,4.77
2018-10-21T15:35:05.786Z,4.87
2018-10-21T15:37:34.339Z,2.57
2018-10-21T15:40:03.095Z,3.50
2018-10-21T15:42:31.619Z,3.83
2018-10-21T15:45:00.187Z,3.00
2018-10-21T15:47:28.714Z,3.00
2018-10-21T15:49:57.283Z,5.30
2018-10-21T15:52:25.920Z,2.33
2018-10-21T15:54:54.443Z,5.40
2018-10-21T15:57:22.999Z,5.17
2018-10-21T15:59:51.562Z,3.93
2018-10-21T16:02:20.223Z,2.40
2018-10-21T16:04:48.671Z,2.80
2018-10-21T16:07:17.199Z,3.13
2018-10-21T16:09:45.697Z,5.00
2018-10-21T16:12:14.279Z,2.60
2018-10-21T16:14:42.835Z,3.20
2018-10-21T16:17:11.406Z,4.23
2018-10-21T16:19:40.028Z,2.93
2018-10-21T16:22:09.029Z,3.37
2018-10-21T16:24:37.552Z,5.10
2018-10-21T16:27:06.112Z,5.47
2018-10-21T16:29:34.644Z,7.37
2018-10-21T16:32:03.396Z,2.93
2018-10-21T16:34:31.796Z,6.40
2018-10-21T16:37:00.355Z,4.47
2018-10-21T16:39:28.950Z,3.03
2018-10-21T16:41:57.531Z,2.83
2018-10-21T16:44:26.070Z,5.40
2018-10-21T16:46:54.616Z,3.77
2018-10-21T16:49:23.427Z,6.80
2018-10-21T16:51:52.125Z,4.40
2018-10-21T16:54:20.726Z,4.23
2018-10-21T16:56:49.155Z,10.33
2018-10-21T16:59:17.708Z,3.47
2018-10-21T17:01:46.211Z,7.17
2018-10-21T17:04:14.719Z,4.37
2018-10-21T17:06:43.266Z,8.97
2018-10-21T17:09:14.115Z,4.43
2018-10-21T17:11:49.171Z,5.63
2018-10-21T17:14:17.691Z,8.47
2018-10-21T17:16:46.265Z,8.40
2018-10-21T17:19:14.844Z,6.13
2018-10-21T17:21:43.372Z,6.73
2018-10-21T17:24:11.909Z,4.43
2018-10-21T17:26:40.487Z,8.50
2018-10-21T17:29:09.134Z,6.00
2018-10-21T17:31:37.664Z,6.43
2018-10-21T17:34:06.317Z,4.13
2018-10-21T17:36:34.767Z,3.83
2018-10-21T17:39:03.521Z,5.53
2018-10-21T17:41:32.064Z,7.27
2018-10-21T17:44:00.579Z,10.23
2018-10-21T17:46:29.112Z,9.83
2018-10-21T17:48:57.714Z,7.33
2018-10-21T17:51:26.258Z,8.57
2018-10-21T17:53:54.867Z,6.63
2018-10-21T17:56:23.376Z,5.57
2018-10-21T17:58:51.927Z,7.27
2018-10-21T18:01:20.468Z,6.87
2018-10-21T18:03:48.970Z,6.83
2018-10-21T18:06:17.531Z,10.20
2018-10-21T18:08:46.063Z,14.40
2018-10-21T18:11:14.621Z,4.73
2018-10-21T18:13:43.163Z,7.60
2018-10-21T18:16:11.761Z,10.83
2018-10-21T18:18:40.234Z,11.40
2018-10-21T18:21:08.909Z,12.23
2018-10-21T18:23:37.435Z,9.60
2018-10-21T18:26:06.110Z,7.50
2018-10-21T18:28:34.566Z,9.70
2018-10-21T18:31:03.146Z,9.53
2018-10-21T18:33:31.936Z,13.00
2018-10-21T18:36:01.132Z,13.60
2018-10-21T18:38:30.020Z,14.30
2018-10-21T18:40:58.961Z,11.00
2018-10-21T18:43:27.444Z,16.47
2018-10-21T18:45:56.023Z,17.10
2018-10-21T18:48:24.571Z,11.13
2018-10-21T18:50:53.128Z,12.60
2018-10-21T18:53:21.654Z,13.60
2018-10-21T18:55:50.480Z,11.70
2018-10-21T18:58:19.202Z,9.37
2018-10-21T19:00:47.679Z,11.60
2018-10-21T19:03:16.252Z,11.70
2018-10-21T19:05:44.773Z,12.37
2018-10-21T19:08:13.321Z,14.63
2018-10-21T19:10:41.879Z,25.83
2018-10-21T19:13:10.470Z,24.47
2018-10-21T19:15:39.104Z,15.80
2018-10-21T19:18:07.675Z,23.47
2018-10-21T19:20:36.218Z,25.60
2018-10-21T19:23:04.971Z,18.37
2018-10-21T19:25:33.594Z,15.63
2018-10-21T19:28:02.125Z,14.43
2018-10-21T19:30:30.685Z,15.17
2018-10-21T19:32:59.339Z,11.90
2018-10-21T19:35:27.924Z,15.03
2018-10-21T19:37:56.446Z,10.17
2018-10-21T19:40:25.003Z,14.20
2018-10-21T19:42:53.589Z,10.87
2018-10-21T19:45:22.122Z,13.30
2018-10-21T19:47:50.663Z,18.43
2018-10-21T19:50:19.174Z,14.20
2018-10-21T19:52:47.699Z,12.70
2018-10-21T19:55:16.315Z,12.33
2018-10-21T19:57:44.754Z,12.23
2018-10-21T20:00:14.832Z,14.97
2018-10-21T20:02:43.906Z,14.37
2018-10-21T20:05:12.566Z,13.63
2018-10-21T20:07:41.164Z,17.17
2018-10-21T20:10:15.500Z,16.40
2018-10-21T20:12:43.959Z,11.10
2018-10-21T20:15:13.165Z,13.73
2018-10-21T20:17:41.829Z,18.63
2018-10-21T20:20:12.021Z,16.30
2018-10-21T20:22:40.556Z,14.60
2018-10-21T20:25:10.090Z,16.47
2018-10-21T20:27:38.538Z,16.87
2018-10-21T20:30:08.787Z,14.07
2018-10-21T20:32:37.386Z,13.83
2018-10-21T20:35:07.879Z,14.70
2018-10-21T20:37:36.549Z,14.10
2018-10-21T20:40:06.552Z,20.23
2018-10-21T20:42:35.166Z,11.27
2018-10-21T20:45:03.814Z,14.77
2018-10-21T20:47:32.381Z,16.67
2018-10-21T20:50:00.949Z,19.23
2018-10-21T20:52:29.483Z,14.13
2018-10-21T20:54:58.082Z,14.23
2018-10-21T20:57:26.601Z,12.93
2018-10-21T20:59:55.293Z,18.90
2018-10-21T21:02:23.904Z,15.83
2018-10-21T21:04:52.482Z,9.20
2018-10-21T21:07:21.036Z,11.63
2018-10-21T21:09:49.641Z,13.13
2018-10-21T21:12:18.201Z,15.90
2018-10-21T21:14:46.767Z,10.77
2018-10-21T21:17:15.320Z,17.70
2018-10-21T21:19:43.919Z,15.93
2018-10-21T21:22:12.551Z,12.10
2018-10-21T21:24:41.060Z,17.67
2018-10-21T21:27:09.635Z,12.93
2018-10-21T21:29:38.182Z,15.00
2018-10-21T21:32:07.172Z,13.20
2018-10-21T21:34:35.684Z,11.87
2018-10-21T21:37:04.216Z,11.43
2018-10-21T21:39:32.789Z,16.40
2018-10-21T21:42:01.411Z,11.53
2018-10-21T21:44:29.923Z,17.60
2018-10-21T21:46:58.441Z,16.43
2018-10-21T21:49:26.993Z,15.33
2018-10-21T21:51:55.580Z,12.33
2018-10-21T21:54:24.081Z,17.13
2018-10-21T21:56:52.588Z,10.23
2018-10-21T21:59:21.120Z,13.70
2018-10-21T22:01:49.711Z,13.23
2018-10-21T22:04:18.298Z,15.53
2018-10-21T22:06:46.798Z,10.40
2018-10-21T22:09:15.346Z,18.33
2018-10-21T22:11:43.910Z,13.47
2018-10-21T22:14:12.489Z,13.03
2018-10-21T22:16:41.044Z,15.63
2018-10-21T22:19:09.644Z,14.47
2018-10-21T22:21:38.855Z,13.27
2018-10-21T22:24:08.514Z,17.07
2018-10-21T22:26:37.054Z,15.27
2018-10-21T22:29:06.474Z,14.53
2018-10-21T22:31:35.041Z,12.93
2018-10-21T22:34:03.638Z,17.63
2018-10-21T22:36:32.172Z,18.23
2018-10-21T22:39:00.799Z,16.67
2018-10-21T22:41:29.359Z,12.53
2018-10-21T22:43:57.903Z,16.20
2018-10-21T22:46:26.494Z,11.00
2018-10-21T22:48:55.032Z,14.40
2018-10-21T22:51:23.578Z,16.70
2018-10-21T22:53:52.127Z,15.20
2018-10-21T22:56:20.655Z,15.43
2018-10-21T22:58:49.181Z,14.30
2018-10-21T23:01:17.730Z,13.37
2018-10-21T23:03:46.291Z,15.20
2018-10-21T23:06:14.961Z,13.47
2018-10-21T23:08:43.509Z,14.73
2018-10-21T23:11:12.097Z,17.53
2018-10-21T23:13:40.785Z,10.97
2018-10-21T23:16:09.714Z,12.97
2018-10-21T23:18:38.282Z,15.70
2018-10-21T23:21:06.816Z,13.60
2018-10-21T23:23:35.333Z,11.83
2018-10-21T23:26:03.922Z,16.47
2018-10-21T23:28:32.470Z,12.60
2018-10-21T23:31:00.966Z,15.87
2018-10-21T23:33:29.498Z,12.40
2018-10-21T23:35:58.147Z,13.33
2018-10-21T23:38:26.594Z,16.40
2018-10-21T23:40:55.134Z,10.57
2018-10-21T23:43:23.666Z,13.93
2018-10-21T23:45:52.208Z,10.83
2018-10-21T23:48:20.782Z,13.77
2018-10-21T23:50:49.314Z,12.93
2018-10-21T23:53:17.816Z,13.53
2018-10-21T23:55:46.336Z,10.50
2018-10-21T23:58:14.929Z,16.90
